Create Custom Reports and Graphics: Custom Report

Latest Observations

Map

15 Minute Data

Lodi West

Latest Observations

15 Minute Data | America/Los_Angeles
as of 10/20/18 10:56 AM PDT
Station Date Time Temp (°F) Dew Pt (°F) RH (%) Wind Dir (°) Wind Spd ( mph) Wind Gust ( mph) Latest Rain (In) Daily Rain (In) Min Temp (°F) Max Temp (°F) Day
Utter - Wilson 10/20/18 1045 69.1   0.7 52.3   0.5 55   0 SSW | 204 2.2   0.2 5.7   1.1 0.00 0.00 40.7   0.3 70.2   0.1 10/20/18
Clarksburg (CLK) 10/20/18 1045 69.2   0.8 50.0   1.2 50   4 SSW | 212 3.6   2.4 6.7   3.1 0.00 0.00 45.1   3.4 69.2   0.8 10/20/18
Gorter - Wilson 10/20/18 1045 70.5   3.2 50.8   1.7 50   2 S | 175 2.2   0.3 5.6   1.0 0.00 0.00 37.1   0.2 71.4   2.3 10/20/18
Hood (HOD) 10/20/18 1045 68.6   1.4 50.9   1.6 53   1 SW | 216 2.2   0.0 5.0   0.3 0.00 0.00 37.6   0.9 68.9   1.5 10/20/18
Courtland-C3 10/20/18 1045 69.4   1.4 49.9   4.3 50   5 SSE | 150 2.3   1.2 3.9   0.7 0.00 0.00 42.0   2.0 69.9   0.9 10/20/18
Pacific Fruit 10/20/18 1045 71.3   1.6 48.4   3.6 44   3 SSW | 212 3.2   2.0 6.6   3.2 0.00 0.00 41.1   0.8 72.5   1.1 10/20/18
Ryer Island South (RIS) 10/20/18 1045 71.5   4.3 48.4   1.5 44   10 SE | 124 2.2   0.4 5.0   0.2 0.00 0.00 38.3   0.7 72.4   3.8 10/20/18
Guard Rd (Lodi WSW) 10/20/18 1045 69.2   0.8 46.0   4.2 43   9 SSE | 164 3.2   0.6 6.6   0.5 0.00 0.00 38.5   0.2 70.0   0.6 10/20/18
Claussen 10/20/18 1045 70.3   1.0 46.7   4.0 43   9 ENE | 78 2.8   0.5 6.2   0.1 0.00 0.00 41.6   0.7 71.3   1.3 10/20/18

Lodi Central

Latest Observations

15 Minute Data | America/Los_Angeles
as of 10/20/18 10:56 AM PDT
Station Date Time Temp (°F) Dew Pt (°F) RH (%) Wind Dir (°) Wind Spd ( mph) Wind Gust ( mph) Latest Rain (In) Daily Rain (In) Min Temp (°F) Max Temp (°F) Day
Galt West (GAW) 10/20/18 1045 70.4   0.9 46.7   3.7 43   4 S | 173 2.6   0.8 5.4   1.0 0.00 0.00 41.2   1.9 70.6   0.8 10/20/18
Valley Oak 10/20/18 1000 66.8   0.4 43.9   6.1 43   10 SSE | 152 1.2   0.5 3.9   1.1 0.00 0.00 40.1   1.4 68.0   0.4 10/20/18
Thornton 10/20/18 1045 68.7   1.7 46.5   3.5 45   8 S | 170 3.1   2.3 5.4   0.0 0.00 0.00 39.7   0.9 69.3   2.6 10/20/18
Kost Rd 10/20/18 1045 70.8   0.9 46.5   4.5 42   6 S | 180 2.5   0.5 5.7   1.4 0.00 0.00 41.5   1.0 72.2   1.5 10/20/18
DeVries Road-North 10/20/18 1045 70.0   0.2 44.3   1.8 40   2 SSE | 168 3.3   2.0 7.4   2.8 0.00 0.00 40.8   1.6 70.4   0.2 10/20/18
Lodi (LangeTwins) 10/20/18 1045 68.7   0.0 43.2   3.8 40   5 SSW | 205 3.6   1.2 6.4   1.7 0.00 0.00 42.5   0.8 69.2   0.2 10/20/18
Acampo (ACP) 10/20/18 1045 70.2   0.4 43.2   4.3 38   6 S | 181 1.5   0.8 5.4   0.7 0.00 0.00 41.3   0.8 70.8   0.0 10/20/18
Lodi West (MDW) 10/20/18 1030 69.3   2.4 44.1   2.2 40   7 SSE | 159 2.3   0.9 7.0   2.2 0.00 0.00 43.3   0.3 70.1   2.2 10/20/18

Latest Observation

19 Stations

15 Minute Data | America/Los_Angeles
as of 10/20/18 10:56 AM PDT
Station Date Time Temp (°F) Dew Pt (°F) RH (%) Wind Spd ( mph) Wind Dir (°) Wind Gust ( mph) Latest Rain (In) Daily Rain (In) Min Temp (°F) Max Temp (°F) Day
Borden Hills 10/20/18 1045 73.2   0.3 44.8   4.2 36   5 2.2   0.5 SW | 236 5.0   0.9 0.00 0.00 48.0   4.1 73.8   0.3 10/20/18
Collegeville (COL) 10/20/18 1045 69.7   3.5 42.6   3.5 37   11 4.4   1.2 SE | 144 7.2   1.5 0.00 0.00 42.5   0.1 70.0   3.6 10/20/18
Galt-East (EGT) 10/20/18 1045 69.4   1.1 44.9   0.6 41   1 2.1   0.2 SW | 216 5.0   1.3 0.00 0.00 42.3   2.3 70.1   1.0 10/20/18
Escalon (ESL) 10/20/18 1045 70.7   0.8 46.7   3.3 42   7 2.0   0.3 SE | 141 4.4   1.2 0.00 0.00 41.9   0.5 71.8   1.3 10/20/18
Victor - N (Katusha) 10/20/18 1045 69.6   1.0 42.3   1.2 37   3 1.5   1.0 SSW | 210 4.8   1.0 0.00 0.00 42.4   2.1 70.6   0.8 10/20/18
Gilbeau Ranch 10/20/18 1000 68.2   2.2 41.3   0.9 37   4 2.1   1.6 SSE | 167 5.5   3.3 0.00 0.00 41.1   1.6 69.0   1.3 10/20/18
Lodi 10/20/18 0915 62.0 42.7 49 0.7 W | 261 2.6 0.00 0.00 41.0 63.0 10/20/18
Lockeford (LOC) 10/20/18 1045 69.4   1.8 - - 1.7   0.7 SW | 234 4.6   0.8 0.00 0.00 42.0   0.8 70.2   1.6 10/20/18
Lone Oak-L28 10/20/18 1045 71.2   1.2 46.1   4.2 41   7 2.6   0.7 SSE | 164 5.7   1.6 0.00 0.00 39.6   1.2 72.0   1.1 10/20/18
Sheldon (SHL) 10/20/18 1045 69.0   1.2 44.2   0.9 41   3 0.9   0.4 SSW | 205 3.8   1.0 0.00 0.00 41.1   2.0 69.8   1.4 10/20/18
Sierra Loma-L27 10/20/18 1045 73.4   1.2 44.6   3.4 36   6 2.3   0.6 SW | 219 5.5   0.8 0.00 0.00 47.8   4.2 74.4   1.1 10/20/18
Simmerhorn (SIM) 10/20/18 1045 71.8   0.5 40.7   3.1 32   3 - - - - - 40.7   0.4 72.4   0.5 10/20/18
Sloughhouse (SLH) 10/20/18 1045 69.2   1.0 42.1   5.2 37   6 0.6   0.1 WSW | 246 5.4   0.0 0.00 0.00 39.2   0.2 70.1   1.0 10/20/18
5 Wells 10/20/18 1045 69.2   0.1 42.3   2.4 38   3 2.3   0.3 SW | 218 4.0   0.2 0.00 0.00 44.9   2.8 69.9   0.0 10/20/18